Time;durP1;ratioP1;P1;durP2;ratioP2;P2;SDS_P1;SDS_P2;PMS_P1;PMS_P2;Temp;Humidity;BMP_temperature;BMP_pressure;BME280_temperature;BME280_humidity;BME280_pressure;Samples;Min_cycle;Max_cycle;Signal;HPM_P1;HPM_P2
2022/09/13 00:00:38;;;;;;;2.83;2.63;;;16.80;99.90;;;;;;5050299;28;20456;-60
2022/09/13 00:03:04;;;;;;;2.45;2.25;;;16.80;99.90;;;;;;5050955;28;20280;-60
2022/09/13 00:05:30;;;;;;;2.53;2.33;;;16.40;99.90;;;;;;5050044;28;20718;-60
2022/09/13 00:07:56;;;;;;;2.10;2.00;;;16.60;99.90;;;;;;5050177;28;20196;-60
2022/09/13 00:10:24;;;;;;;2.55;2.30;;;16.80;99.90;;;;;;5044365;28;20205;-59
2022/09/13 00:12:50;;;;;;;2.40;2.20;;;16.80;99.90;;;;;;5051978;28;20658;-60
2022/09/13 00:15:16;;;;;;;2.25;2.00;;;16.70;99.90;;;;;;5045304;28;20231;-60
2022/09/13 00:17:42;;;;;;;2.83;2.30;;;16.60;99.90;;;;;;5047379;28;20190;-59
2022/09/13 00:20:08;;;;;;;2.20;1.93;;;16.80;99.90;;;;;;5050057;28;20753;-60
2022/09/13 00:22:35;;;;;;;3.17;2.28;;;16.90;99.90;;;;;;5049482;28;20197;-60
2022/09/13 00:25:02;;;;;;;2.38;2.20;;;16.50;99.90;;;;;;5049515;28;20276;-58
2022/09/13 00:27:27;;;;;;;2.05;1.92;;;16.60;99.90;;;;;;5051100;28;20561;-60
2022/09/13 00:29:53;;;;;;;2.10;2.00;;;16.50;99.90;;;;;;5051255;28;20190;-60
2022/09/13 00:32:18;;;;;;;2.80;2.60;;;16.50;99.90;;;;;;5047732;28;20214;-60
2022/09/13 00:34:44;;;;;;;1.90;1.80;;;16.30;99.90;;;;;;5051844;28;20189;-60
2022/09/13 00:37:10;;;;;;;2.30;2.10;;;16.50;99.90;;;;;;5050342;28;20669;-60
2022/09/13 00:39:36;;;;;;;3.00;2.00;;;16.60;99.90;;;;;;5046209;28;20192;-60
2022/09/13 00:42:01;;;;;;;3.17;2.47;;;16.30;99.90;;;;;;5050834;28;20331;-60
2022/09/13 00:44:49;;;;;;;2.70;2.30;;;16.40;99.90;;;;;;5051191;28;20594;-60
2022/09/13 00:47:19;;;;;;;2.53;2.30;;;16.50;99.90;;;;;;5047883;28;20931;-60
2022/09/13 00:49:48;;;;;;;1.98;1.88;;;16.50;99.90;;;;;;5049512;28;20243;-59
2022/09/13 00:52:19;;;;;;;2.30;1.90;;;16.70;99.90;;;;;;5049701;28;20181;-59
2022/09/13 00:54:49;;;;;;;3.08;2.08;;;16.50;99.90;;;;;;5044202;28;20475;-60
2022/09/13 00:57:18;;;;;;;2.17;2.08;;;16.40;99.90;;;;;;5046975;28;20198;-60
2022/09/13 00:59:55;;;;;;;2.85;2.55;;;16.40;99.90;;;;;;5047340;28;20197;-60
2022/09/13 01:02:21;;;;;;;4.05;2.55;;;16.40;99.90;;;;;;5050076;28;20173;-60
2022/09/13 01:04:47;;;;;;;3.55;2.13;;;16.10;99.90;;;;;;5042101;28;20198;-60
2022/09/13 01:07:15;;;;;;;2.77;2.30;;;16.30;99.90;;;;;;5045300;28;20192;-60
2022/09/13 01:09:44;;;;;;;2.50;2.20;;;16.40;99.90;;;;;;5048353;28;20535;-60
2022/09/13 01:12:24;;;;;;;2.13;1.92;;;16.30;99.90;;;;;;5049780;28;20184;-60
2022/09/13 01:14:51;;;;;;;2.85;2.08;;;16.40;99.90;;;;;;5048880;28;20173;-59
2022/09/13 01:17:17;;;;;;;2.20;2.05;;;16.10;99.90;;;;;;5040651;28;20177;-60
2022/09/13 01:19:43;;;;;;;2.53;2.33;;;16.20;99.90;;;;;;5048107;28;20275;-60
2022/09/13 01:22:11;;;;;;;3.20;2.00;;;16.10;99.90;;;;;;5042941;28;20244;-60
2022/09/13 01:24:46;;;;;;;2.25;2.05;;;16.20;99.90;;;;;;5044925;28;20532;-60
2022/09/13 01:27:14;;;;;;;2.25;2.05;;;16.30;99.90;;;;;;5040193;28;20192;-60
2022/09/13 01:30:02;;;;;;;2.20;2.00;;;16.00;99.90;;;;;;5049962;28;20198;-59
2022/09/13 01:32:58;;;;;;;2.20;2.00;;;16.00;99.90;;;;;;5050595;28;20180;-60
2022/09/13 01:35:45;;;;;;;1.90;1.80;;;16.10;99.90;;;;;;5048886;28;20189;-60
2022/09/13 01:38:31;;;;;;;2.20;2.10;;;16.20;99.90;;;;;;5048923;28;20650;-59
2022/09/13 01:41:27;;;;;;;2.15;1.90;;;16.10;99.90;;;;;;5047372;28;20233;-59
2022/09/13 01:44:15;;;;;;;2.38;2.17;;;16.10;99.90;;;;;;5049172;28;20208;-59
2022/09/13 01:46:57;;;;;;;2.08;1.88;;;16.20;99.90;;;;;;5048398;28;20181;-59
2022/09/13 01:49:45;;;;;;;2.25;2.00;;;16.10;99.90;;;;;;5045876;28;20181;-60
2022/09/13 01:52:51;;;;;;;2.80;2.22;;;16.20;99.90;;;;;;5046400;28;20189;-59
2022/09/13 01:55:46;;;;;;;2.38;2.17;;;16.20;99.90;;;;;;5046684;28;20181;-59
2022/09/13 01:58:37;;;;;;;2.10;1.92;;;16.20;99.90;;;;;;5032892;28;20215;-59
2022/09/13 02:01:06;;;;;;;2.10;1.98;;;15.90;99.90;;;;;;5041643;28;20671;-60
2022/09/13 02:03:45;;;;;;;3.05;2.33;;;15.80;99.90;;;;;;5045625;28;20215;-60
2022/09/13 02:06:16;;;;;;;2.90;2.40;;;15.90;99.90;;;;;;5047828;28;20170;-60
2022/09/13 02:08:49;;;;;;;2.80;2.60;;;15.90;99.90;;;;;;5049664;28;20192;-60
2022/09/13 02:11:19;;;;;;;2.25;2.05;;;15.90;99.90;;;;;;5045055;28;20244;-61
2022/09/13 02:14:06;;;;;;;5.75;2.15;;;15.80;99.90;;;;;;5051510;28;20181;-60
2022/09/13 02:16:59;;;;;;;2.40;2.20;;;15.80;99.90;;;;;;5051390;28;20655;-60
2022/09/13 02:19:35;;;;;;;2.80;2.28;;;16.00;99.90;;;;;;5039906;28;20202;-60
2022/09/13 02:22:02;;;;;;;2.70;2.50;;;15.80;99.90;;;;;;5052556;28;20205;-60
2022/09/13 02:24:36;;;;;;;5.15;2.60;;;15.90;99.90;;;;;;5047421;28;20225;-60
2022/09/13 02:27:11;;;;;;;2.35;2.25;;;15.80;99.90;;;;;;5046615;28;20662;-60
2022/09/13 02:29:39;;;;;;;3.67;2.40;;;16.10;99.90;;;;;;5045555;28;20177;-60
2022/09/13 02:32:10;;;;;;;2.30;2.10;;;15.70;99.90;;;;;;5053675;28;20193;-60
2022/09/13 02:34:53;;;;;;;2.25;2.05;;;15.70;99.90;;;;;;5050840;28;20208;-59
2022/09/13 02:37:19;;;;;;;4.25;2.38;;;15.80;99.90;;;;;;5047274;28;20187;-59
2022/09/13 02:39:55;;;;;;;2.58;2.17;;;15.80;99.90;;;;;;5049867;28;20702;-58
2022/09/13 02:42:25;;;;;;;2.35;2.10;;;15.90;99.90;;;;;;5052942;28;20177;-58
2022/09/13 02:44:54;;;;;;;3.72;2.40;;;15.60;99.90;;;;;;5050252;28;20693;-59
2022/09/13 02:47:25;;;;;;;1.98;1.88;;;15.60;99.90;;;;;;5035181;28;20191;-58
2022/09/13 02:50:19;;;;;;;3.03;2.35;;;15.70;99.90;;;;;;5045834;28;20235;-59
2022/09/13 02:52:59;;;;;;;3.58;2.20;;;15.90;99.90;;;;;;5050913;28;20193;-59
2022/09/13 02:55:30;;;;;;;3.10;2.35;;;15.70;99.90;;;;;;5043369;28;20296;-59
2022/09/13 02:58:06;;;;;;;2.45;2.25;;;15.60;99.90;;;;;;5033665;28;20693;-59
2022/09/13 03:00:32;;;;;;;2.50;2.30;;;15.50;99.90;;;;;;5044437;28;20856;-59
2022/09/13 03:03:01;;;;;;;2.53;2.30;;;15.70;99.90;;;;;;5044129;28;20210;-59
2022/09/13 03:05:27;;;;;;;2.60;2.40;;;15.70;99.90;;;;;;5052906;28;20181;-59
2022/09/13 03:07:53;;;;;;;2.93;2.50;;;15.80;99.90;;;;;;5052511;28;20201;-58
2022/09/13 03:10:22;;;;;;;4.18;2.15;;;15.70;99.90;;;;;;5046301;28;20292;-59
2022/09/13 03:13:22;;;;;;;2.50;2.30;;;15.70;99.90;;;;;;5053061;28;20568;-59
2022/09/13 03:15:48;;;;;;;4.20;2.20;;;15.70;99.90;;;;;;5010765;28;20212;-59
2022/09/13 03:18:32;;;;;;;3.10;2.90;;;15.70;99.90;;;;;;5045992;28;20546;-59
2022/09/13 03:21:09;;;;;;;2.35;2.13;;;15.80;99.90;;;;;;5051562;28;20209;-58
2022/09/13 03:23:51;;;;;;;2.90;2.70;;;15.70;99.90;;;;;;5049171;28;20736;-59
2022/09/13 03:26:51;;;;;;;3.10;2.50;;;16.00;99.90;;;;;;5047983;28;20235;-58
2022/09/13 03:29:48;;;;;;;4.18;2.55;;;15.70;99.90;;;;;;5052554;28;20174;-59
2022/09/13 03:32:22;;;;;;;3.00;2.80;;;15.70;99.90;;;;;;5052531;28;20176;-59
2022/09/13 03:35:13;;;;;;;2.50;2.30;;;15.60;99.90;;;;;;5046853;28;20566;-59
2022/09/13 03:37:47;;;;;;;2.65;2.45;;;15.80;99.90;;;;;;5051694;28;20188;-59
2022/09/13 03:40:17;;;;;;;2.97;2.67;;;15.90;99.90;;;;;;5024448;28;20568;-59
2022/09/13 03:42:53;;;;;;;3.03;2.83;;;15.70;99.90;;;;;;5052501;28;20201;-59
2022/09/13 03:45:23;;;;;;;2.85;2.50;;;16.00;99.90;;;;;;5033500;28;20264;-59
2022/09/13 03:47:50;;;;;;;2.60;2.40;;;15.80;99.90;;;;;;5051473;28;20189;-59
2022/09/13 03:50:19;;;;;;;2.80;2.60;;;16.00;99.90;;;;;;5046531;28;20223;-59
2022/09/13 03:52:49;;;;;;;2.67;2.30;;;15.80;99.90;;;;;;5051883;28;20227;-59
2022/09/13 03:55:20;;;;;;;3.20;2.60;;;15.90;99.90;;;;;;5048978;28;20197;-60
2022/09/13 03:57:46;;;;;;;2.53;2.30;;;15.80;99.90;;;;;;5040550;28;20282;-59
2022/09/13 04:00:14;;;;;;;2.77;2.57;;;15.50;99.90;;;;;;5048998;28;20296;-59
2022/09/13 04:02:39;;;;;;;3.80;2.70;;;15.70;99.90;;;;;;5051485;28;22275;-59
2022/09/13 04:05:06;;;;;;;2.87;2.60;;;15.70;99.90;;;;;;5045008;28;20178;-59
2022/09/13 04:07:31;;;;;;;7.93;3.40;;;15.80;99.90;;;;;;5051509;28;20263;-59
2022/09/13 04:09:57;;;;;;;3.80;2.90;;;15.60;99.90;;;;;;5053992;28;20726;-59
2022/09/13 04:12:22;;;;;;;2.90;2.70;;;15.70;99.90;;;;;;5050500;28;20200;-59
2022/09/13 04:14:48;;;;;;;2.90;2.60;;;15.80;99.90;;;;;;5038956;28;20194;-59
2022/09/13 04:17:14;;;;;;;3.70;2.93;;;15.70;99.90;;;;;;5046271;28;20316;-60
2022/09/13 04:19:41;;;;;;;6.78;2.63;;;15.50;99.90;;;;;;5045969;28;20184;-59
2022/09/13 04:22:07;;;;;;;3.10;2.53;;;15.80;99.90;;;;;;5051354;28;20701;-59
2022/09/13 04:24:32;;;;;;;2.85;2.65;;;15.50;99.90;;;;;;5045879;28;20580;-59
2022/09/13 04:26:58;;;;;;;2.80;2.60;;;15.50;99.90;;;;;;5051308;28;20189;-59
2022/09/13 04:29:25;;;;;;;2.83;2.43;;;15.90;99.90;;;;;;5052099;28;20174;-59
2022/09/13 04:31:52;;;;;;;3.45;3.15;;;15.70;99.90;;;;;;5050875;28;20204;-60
2022/09/13 04:34:18;;;;;;;2.90;2.70;;;15.70;99.90;;;;;;5030651;28;20239;-60
2022/09/13 04:36:45;;;;;;;2.87;2.67;;;15.70;99.90;;;;;;5046216;28;20189;-59
2022/09/13 04:39:14;;;;;;;3.90;3.60;;;15.70;99.90;;;;;;5047668;28;20451;-59
2022/09/13 04:41:43;;;;;;;3.28;2.80;;;15.60;99.90;;;;;;5050586;28;20689;-59
2022/09/13 04:44:09;;;;;;;3.30;3.00;;;15.50;99.90;;;;;;5047841;28;20222;-59
2022/09/13 04:46:35;;;;;;;3.00;2.70;;;15.50;99.90;;;;;;5044034;28;20557;-59
2022/09/13 04:49:00;;;;;;;3.07;2.77;;;15.70;99.90;;;;;;5041851;28;20185;-59
2022/09/13 04:51:26;;;;;;;3.07;2.77;;;15.70;99.90;;;;;;5045184;28;20887;-58
2022/09/13 04:53:54;;;;;;;3.57;3.30;;;16.00;99.90;;;;;;5043819;28;20197;-58
2022/09/13 04:56:20;;;;;;;3.00;2.80;;;16.00;99.90;;;;;;5046421;28;20205;-59
2022/09/13 04:58:46;;;;;;;3.35;3.05;;;15.80;99.90;;;;;;5045836;28;20714;-59
2022/09/13 05:01:11;;;;;;;3.10;2.90;;;15.90;99.90;;;;;;5046551;28;20285;-58
2022/09/13 05:03:37;;;;;;;2.77;2.57;;;15.90;99.90;;;;;;5044008;28;20663;-59
2022/09/13 05:06:10;;;;;;;4.00;3.27;;;15.90;99.90;;;;;;5041042;28;20240;-59
2022/09/13 05:08:37;;;;;;;3.33;2.75;;;15.90;99.90;;;;;;5045150;28;20463;-59
2022/09/13 05:11:03;;;;;;;4.20;3.85;;;15.90;99.90;;;;;;5039266;28;20208;-59
2022/09/13 05:13:29;;;;;;;4.68;3.60;;;16.00;99.90;;;;;;5049780;28;20201;-59
2022/09/13 05:15:56;;;;;;;6.25;4.20;;;16.00;99.90;;;;;;5046487;28;20190;-59
2022/09/13 05:18:27;;;;;;;4.90;4.45;;;16.00;99.90;;;;;;5044387;28;20186;-59
2022/09/13 05:20:54;;;;;;;4.13;3.72;;;16.30;99.90;;;;;;5047306;28;20217;-59
2022/09/13 05:23:20;;;;;;;4.63;3.60;;;16.00;99.90;;;;;;5042826;28;20259;-59
2022/09/13 05:25:55;;;;;;;7.38;3.95;;;16.20;99.90;;;;;;5045979;28;20185;-59
2022/09/13 05:28:21;;;;;;;4.78;4.35;;;16.20;99.90;;;;;;5046575;28;20541;-59
2022/09/13 05:30:57;;;;;;;4.95;4.00;;;16.00;99.90;;;;;;5047200;28;20202;-59
2022/09/13 05:33:23;;;;;;;4.32;3.92;;;16.00;99.90;;;;;;5046074;28;20193;-59
2022/09/13 05:35:49;;;;;;;3.90;3.58;;;16.20;99.90;;;;;;5041979;28;20201;-62
2022/09/13 05:38:15;;;;;;;3.10;2.90;;;15.80;99.90;;;;;;5041531;28;20235;-64
2022/09/13 05:40:40;;;;;;;4.60;3.47;;;16.10;99.90;;;;;;5042281;28;20252;-68
2022/09/13 05:43:06;;;;;;;6.20;3.63;;;15.90;99.90;;;;;;5043470;28;20201;-60
2022/09/13 05:45:31;;;;;;;5.90;3.60;;;16.00;99.90;;;;;;5048583;28;20181;-61
2022/09/13 05:47:57;;;;;;;6.83;3.93;;;16.40;99.90;;;;;;5043347;28;20264;-60
2022/09/13 05:50:23;;;;;;;4.57;4.17;;;16.30;99.90;;;;;;5026140;28;20221;-61
2022/09/13 05:52:52;;;;;;;4.70;4.20;;;16.40;99.90;;;;;;5046660;28;20662;-56
2022/09/13 05:55:19;;;;;;;4.50;4.10;;;16.40;99.90;;;;;;5043452;28;20744;-58
